Terminal Aerodrome Forecast
Issued by NWS

Home | Current Version | Previous Version | Text Only | Print | Product List | Glossary On
Versions: 1 2 3 4 5 6 7 8 9 10 11 12 13 14 15 16 17 18 19 20 21 22 23 24 25
798
FTUS45 KPSR 242320
TAFPHX
TAF
KPHX 242320Z 2500/2606 24010G16KT P6SM SKC
     FM250600 VRB05KT P6SM SKC
     FM251100 10005KT P6SM SKC
     FM251700 19008KT P6SM SKC
     FM260000 25010KT P6SM SKC=

USA.gov is the U.S. government's official web portal to all federal, state and local government web resources and services.